createdAt,value
2022-10-24T00:01:18.217Z,98408.91
2022-10-24T00:03:45.008Z,98415.00
2022-10-24T00:06:13.253Z,98414.66
2022-10-24T00:08:42.164Z,98408.94
2022-10-24T00:11:17.981Z,98400.53
2022-10-24T00:13:45.109Z,98404.50
2022-10-24T00:16:12.343Z,98412.91
2022-10-24T00:18:39.456Z,98420.06
2022-10-24T00:21:07.964Z,98417.84
2022-10-24T00:23:34.869Z,98417.72
2022-10-24T00:26:01.626Z,98418.66
2022-10-24T00:28:29.126Z,98421.44
2022-10-24T00:30:55.829Z,98422.16
2022-10-24T00:33:22.330Z,98421.09
2022-10-24T00:35:48.692Z,98427.88
2022-10-24T00:38:15.267Z,98447.03
2022-10-24T00:40:42.600Z,98453.56
2022-10-24T00:43:17.316Z,98454.59
2022-10-24T00:45:51.170Z,98449.94
2022-10-24T00:48:35.838Z,98463.47
2022-10-24T00:51:21.222Z,98459.38
2022-10-24T00:53:50.523Z,98458.56
2022-10-24T00:56:19.420Z,98448.97
2022-10-24T00:58:46.230Z,98437.66
2022-10-24T01:01:13.239Z,98446.06
2022-10-24T01:03:41.593Z,98450.63
2022-10-24T01:06:46.968Z,98451.44
2022-10-24T01:09:33.458Z,98450.53
2022-10-24T01:12:14.885Z,98449.56
2022-10-24T01:14:53.213Z,98457.50
2022-10-24T01:18:07.591Z,98450.94
2022-10-24T01:20:45.628Z,98463.78
2022-10-24T01:23:36.426Z,98457.38
2022-10-24T01:26:08.782Z,98445.22
2022-10-24T01:29:02.073Z,98446.84
2022-10-24T01:31:57.501Z,98444.31
2022-10-24T01:34:30.787Z,98455.28
2022-10-24T01:37:03.271Z,98450.50
2022-10-24T01:39:37.202Z,98454.09
2022-10-24T01:42:06.339Z,98453.50
2022-10-24T01:44:41.537Z,98453.38
2022-10-24T01:47:26.202Z,98463.53
2022-10-24T01:49:58.597Z,98451.00
2022-10-24T01:52:29.519Z,98443.41
2022-10-24T01:54:56.290Z,98443.72
2022-10-24T01:57:30.763Z,98457.75
2022-10-24T01:59:57.341Z,98444.56
2022-10-24T02:02:24.013Z,98447.25
2022-10-24T02:05:16.385Z,98451.22
2022-10-24T02:07:45.905Z,98445.13
2022-10-24T02:10:20.901Z,98455.06
2022-10-24T02:12:54.610Z,98455.06
2022-10-24T02:15:26.565Z,98456.69
2022-10-24T02:17:54.523Z,98465.34
2022-10-24T02:20:29.983Z,98470.47
2022-10-24T02:23:09.122Z,98467.34
2022-10-24T02:25:40.625Z,98475.19
2022-10-24T02:28:19.149Z,98459.22
2022-10-24T02:30:55.900Z,98463.88
2022-10-24T02:33:22.872Z,98468.19
2022-10-24T02:35:50.468Z,98486.78
2022-10-24T02:38:23.823Z,98480.06
2022-10-24T02:40:53.600Z,98476.75
2022-10-24T02:43:22.056Z,98447.63
2022-10-24T02:45:51.983Z,98423.94
2022-10-24T02:48:21.351Z,98405.75
2022-10-24T02:50:49.139Z,98419.31
2022-10-24T02:53:22.488Z,98416.97
2022-10-24T02:55:48.968Z,98419.41
2022-10-24T02:58:17.645Z,98427.84
2022-10-24T03:00:44.114Z,98439.97
2022-10-24T03:03:10.705Z,98428.25
2022-10-24T03:05:37.108Z,98432.06
2022-10-24T03:08:04.051Z,98450.16
2022-10-24T03:10:30.420Z,98449.78
2022-10-24T03:12:56.879Z,98464.50
2022-10-24T03:15:23.482Z,98464.13
2022-10-24T03:17:50.188Z,98470.75
2022-10-24T03:20:17.263Z,98461.44
2022-10-24T03:22:43.799Z,98475.69
2022-10-24T03:25:10.688Z,98471.22
2022-10-24T03:27:37.429Z,98482.19
2022-10-24T03:30:04.662Z,98478.91
2022-10-24T03:32:31.177Z,98472.72
2022-10-24T03:34:57.750Z,98477.03
2022-10-24T03:37:24.162Z,98473.75
2022-10-24T03:39:51.371Z,98479.50
2022-10-24T03:42:18.059Z,98483.81
2022-10-24T03:44:45.420Z,98483.47
2022-10-24T03:47:12.017Z,98481.81
2022-10-24T03:49:38.689Z,98469.88
2022-10-24T03:52:05.379Z,98476.16
2022-10-24T03:54:32.118Z,98475.19
2022-10-24T03:56:58.577Z,98450.09
2022-10-24T03:59:24.987Z,98459.59
2022-10-24T04:01:51.539Z,98470.75
2022-10-24T04:04:18.251Z,98478.38
2022-10-24T04:06:44.671Z,98479.63
2022-10-24T04:09:11.200Z,98484.41
2022-10-24T04:11:37.751Z,98490.00
2022-10-24T04:14:04.297Z,98495.59
2022-10-24T04:16:32.439Z,98504.91
2022-10-24T04:18:58.899Z,98500.81
2022-10-24T04:21:25.384Z,98494.88
2022-10-24T04:23:52.242Z,98494.09
2022-10-24T04:26:19.268Z,98488.53
2022-10-24T04:28:45.802Z,98485.84
2022-10-24T04:31:12.718Z,98485.84
2022-10-24T04:33:39.359Z,98482.31
2022-10-24T04:36:06.085Z,98465.03
2022-10-24T04:38:33.608Z,98457.13
2022-10-24T04:41:00.735Z,98455.94
2022-10-24T04:43:28.401Z,98454.53
2022-10-24T04:45:54.874Z,98464.66
2022-10-24T04:48:21.766Z,98465.34
2022-10-24T04:50:49.369Z,98452.81
2022-10-24T04:53:16.027Z,98478.00
2022-10-24T04:55:42.764Z,98495.97
2022-10-24T04:58:09.179Z,98493.88
2022-10-24T05:00:36.134Z,98489.34
2022-10-24T05:03:04.647Z,98499.00
2022-10-24T05:05:31.395Z,98493.06
2022-10-24T05:07:58.148Z,98487.09
2022-10-24T05:10:25.069Z,98481.34
2022-10-24T05:12:52.328Z,98480.31
2022-10-24T05:15:18.914Z,98486.50
2022-10-24T05:17:45.344Z,98482.53
2022-10-24T05:20:12.210Z,98482.78
2022-10-24T05:22:40.122Z,98488.72
2022-10-24T05:25:09.453Z,98489.78
2022-10-24T05:27:35.961Z,98481.72
2022-10-24T05:30:02.437Z,98491.41
2022-10-24T05:32:29.572Z,98487.47
2022-10-24T05:34:56.006Z,98495.31
2022-10-24T05:37:22.680Z,98493.66
2022-10-24T05:39:49.574Z,98490.88
2022-10-24T05:42:16.275Z,98490.44
2022-10-24T05:44:42.905Z,98490.44
2022-10-24T05:47:09.831Z,98481.75
2022-10-24T05:49:36.453Z,98479.25
2022-10-24T05:52:03.482Z,98473.09
2022-10-24T05:54:37.725Z,98486.28
2022-10-24T05:57:15.471Z,98495.72
2022-10-24T05:59:41.914Z,98501.94
2022-10-24T06:02:16.699Z,98517.00
2022-10-24T06:04:43.188Z,98519.03
2022-10-24T06:07:09.652Z,98521.25
2022-10-24T06:09:36.274Z,98529.31
2022-10-24T06:12:05.919Z,98528.06
2022-10-24T06:14:32.446Z,98535.53
2022-10-24T06:17:00.461Z,98534.22
2022-10-24T06:19:26.827Z,98547.66
2022-10-24T06:21:53.174Z,98545.94
2022-10-24T06:24:19.654Z,98569.09
2022-10-24T06:26:46.060Z,98558.63
2022-10-24T06:29:12.429Z,98575.75
2022-10-24T06:31:38.856Z,98570.03
2022-10-24T06:34:05.512Z,98565.72
2022-10-24T06:36:31.926Z,98561.44
2022-10-24T06:38:58.899Z,98548.00
2022-10-24T06:41:28.262Z,98556.59
2022-10-24T06:43:54.915Z,98547.53
2022-10-24T06:46:24.838Z,98546.50
2022-10-24T06:48:55.605Z,98546.94
2022-10-24T06:51:23.461Z,98528.16
2022-10-24T06:53:50.362Z,98536.06
2022-10-24T06:56:19.043Z,98539.09
2022-10-24T06:58:48.367Z,98516.97
2022-10-24T07:01:19.012Z,98530.50
2022-10-24T07:03:45.824Z,98539.63
2022-10-24T07:06:24.531Z,98550.13
2022-10-24T07:08:52.880Z,98554.31
2022-10-24T07:11:19.604Z,98552.31
2022-10-24T07:13:46.408Z,98576.25
2022-10-24T07:16:12.916Z,98582.44
2022-10-24T07:18:39.653Z,98578.59
2022-10-24T07:21:08.959Z,98584.63
2022-10-24T07:23:36.542Z,98576.72
2022-10-24T07:26:05.987Z,98579.41
2022-10-24T07:28:34.417Z,98582.44
2022-10-24T07:31:01.680Z,98586.56
2022-10-24T07:33:28.993Z,98605.97
2022-10-24T07:35:55.529Z,98606.78
2022-10-24T07:38:24.877Z,98614.59
2022-10-24T07:40:51.385Z,98623.72
2022-10-24T07:43:18.520Z,98634.47
2022-10-24T07:45:49.108Z,98639.63
2022-10-24T07:48:19.034Z,98645.59
2022-10-24T07:50:48.683Z,98648.28
2022-10-24T07:53:16.011Z,98636.94
2022-10-24T07:55:45.165Z,98638.22
2022-10-24T07:58:13.427Z,99063.19
2022-10-24T08:00:44.153Z,99073.94
2022-10-24T08:03:11.745Z,99065.28
2022-10-24T08:05:40.360Z,99071.72
2022-10-24T08:10:53.768Z,99067.78
2022-10-24T08:13:20.580Z,99083.91
2022-10-24T08:15:48.175Z,99108.47
2022-10-24T08:18:14.745Z,99117.97
2022-10-24T08:20:41.595Z,99104.09
2022-10-24T08:23:16.485Z,99068.41
2022-10-24T08:25:43.511Z,99086.56
2022-10-24T08:28:10.167Z,99069.03
2022-10-24T08:30:36.625Z,99068.41
2022-10-24T08:33:03.792Z,98980.97
2022-10-24T08:35:30.387Z,98835.13
2022-10-24T08:37:57.130Z,98850.25
2022-10-24T08:40:23.581Z,98866.88
2022-10-24T08:42:50.259Z,98893.75
2022-10-24T08:45:23.627Z,98934.84
2022-10-24T08:48:19.164Z,98971.22
2022-10-24T08:50:51.402Z,98988.81
2022-10-24T08:53:36.355Z,98998.13
2022-10-24T08:56:04.811Z,98993.47
2022-10-24T08:58:43.224Z,98999.09
2022-10-24T09:01:31.801Z,99014.34
2022-10-24T09:04:03.285Z,99017.19
2022-10-24T09:06:32.323Z,99016.94
2022-10-24T09:09:27.624Z,98998.88
2022-10-24T09:12:02.351Z,99017.94
2022-10-24T09:14:34.379Z,98999.75
2022-10-24T09:17:09.777Z,99001.00
2022-10-24T09:19:38.418Z,99010.88
2022-10-24T09:22:07.986Z,99010.06
2022-10-24T09:24:49.330Z,99024.53
2022-10-24T09:27:24.006Z,99031.13
2022-10-24T09:29:51.205Z,99042.28
2022-10-24T09:32:23.258Z,99036.84
2022-10-24T09:34:50.362Z,99043.41
2022-10-24T09:37:44.205Z,99036.38
2022-10-24T09:40:19.608Z,99045.66
2022-10-24T09:43:01.040Z,99052.25
2022-10-24T09:45:43.549Z,99065.69
2022-10-24T09:48:16.127Z,99067.34
2022-10-24T09:50:44.652Z,99070.22
2022-10-24T09:53:31.875Z,99055.47
2022-10-24T09:56:02.215Z,99028.03
2022-10-24T09:58:31.034Z,99030.50
2022-10-24T10:01:01.018Z,99057.41
2022-10-24T10:03:28.232Z,99031.75
2022-10-24T10:05:57.001Z,99036.31
2022-10-24T10:08:36.447Z,99052.41
2022-10-24T10:11:08.889Z,99041.81
2022-10-24T10:13:44.156Z,99041.88
2022-10-24T10:16:22.165Z,99043.69
2022-10-24T10:18:48.860Z,99013.84
2022-10-24T10:21:22.489Z,98999.91
2022-10-24T10:23:56.112Z,99008.97
2022-10-24T10:26:28.670Z,99003.88
2022-10-24T10:29:20.674Z,99001.63
2022-10-24T10:31:50.010Z,98993.28
2022-10-24T10:34:33.403Z,98987.53
2022-10-24T10:37:25.672Z,98981.44
2022-10-24T10:39:55.273Z,98980.09
2022-10-24T10:42:31.467Z,98979.28
2022-10-24T10:45:21.872Z,98984.03
2022-10-24T10:47:56.177Z,98992.84
2022-10-24T10:50:35.228Z,98996.59
2022-10-24T10:53:19.068Z,99002.34
2022-10-24T10:55:54.458Z,99001.19
2022-10-24T10:58:48.891Z,99014.38
2022-10-24T11:01:55.345Z,99022.13
2022-10-24T11:04:46.200Z,99036.56
2022-10-24T11:07:29.194Z,99038.59
2022-10-24T11:10:19.506Z,99047.59
2022-10-24T11:12:47.043Z,99056.19
2022-10-24T11:15:37.486Z,99064.31
2022-10-24T11:18:21.653Z,99086.41
2022-10-24T11:21:00.048Z,99124.09
2022-10-24T11:23:49.867Z,99083.88
2022-10-24T11:26:26.786Z,98642.25
2022-10-24T11:29:11.818Z,98645.16
2022-10-24T11:31:43.810Z,98639.91
2022-10-24T11:34:10.309Z,98639.81
2022-10-24T11:36:54.832Z,98619.66
2022-10-24T11:39:23.976Z,98626.78
2022-10-24T11:42:15.335Z,98612.59
2022-10-24T11:44:57.257Z,98592.91
2022-10-24T11:47:23.977Z,98599.25
2022-10-24T11:49:58.736Z,98608.59
2022-10-24T11:52:31.162Z,98591.22
2022-10-24T11:55:08.644Z,98594.84
2022-10-24T11:57:35.972Z,98583.03
2022-10-24T12:00:03.039Z,98571.66
2022-10-24T12:02:41.862Z,98563.81
2022-10-24T12:05:22.647Z,98556.56
2022-10-24T12:07:49.210Z,98563.09
2022-10-24T12:10:32.026Z,98553.38
2022-10-24T12:13:01.275Z,98550.09
2022-10-24T12:16:06.035Z,98551.84
2022-10-24T12:18:37.906Z,98542.94
2022-10-24T12:21:20.077Z,98539.31
2022-10-24T12:23:59.525Z,98536.47
2022-10-24T12:26:31.299Z,98530.16
2022-10-24T12:29:01.357Z,98528.06
2022-10-24T12:31:32.918Z,98539.31
2022-10-24T12:34:17.564Z,98543.66
2022-10-24T12:37:12.770Z,98540.41
2022-10-24T12:39:47.827Z,98534.41
2022-10-24T12:42:20.531Z,98537.22
2022-10-24T12:45:33.665Z,98540.47
2022-10-24T12:48:00.097Z,98545.31
2022-10-24T12:50:35.630Z,98551.59
2022-10-24T12:53:06.423Z,98565.03
2022-10-24T12:55:39.846Z,98566.31
2022-10-24T12:58:23.376Z,98559.88
2022-10-24T13:00:56.157Z,98555.38
2022-10-24T13:03:36.723Z,98560.28
2022-10-24T13:06:17.857Z,98567.91
2022-10-24T13:08:53.151Z,98564.38
2022-10-24T13:11:29.043Z,98560.28
2022-10-24T13:14:16.710Z,98555.81
2022-10-24T13:17:08.204Z,98552.06
2022-10-24T13:19:35.821Z,98556.72
2022-10-24T13:22:02.667Z,98547.56
2022-10-24T13:24:39.611Z,98549.28
2022-10-24T13:27:10.441Z,98549.97
2022-10-24T13:29:39.440Z,98548.75
2022-10-24T13:32:05.876Z,98543.03
2022-10-24T13:34:45.776Z,98551.53
2022-10-24T13:37:32.504Z,98532.97
2022-10-24T13:40:15.902Z,98538.78
2022-10-24T13:42:50.960Z,98541.41
2022-10-24T13:45:30.508Z,98555.16
2022-10-24T13:48:02.985Z,98551.47
2022-10-24T13:50:36.242Z,98550.09
2022-10-24T13:53:14.324Z,98546.09
2022-10-24T13:55:46.876Z,98553.53
2022-10-24T13:58:25.110Z,98561.28
2022-10-24T14:01:04.916Z,98556.06
2022-10-24T14:03:33.204Z,98552.69
2022-10-24T14:06:08.604Z,98550.97
2022-10-24T14:08:50.157Z,98562.00
2022-10-24T14:11:25.905Z,98554.25
2022-10-24T14:14:02.622Z,98573.16
2022-10-24T14:16:35.708Z,98561.09
2022-10-24T14:19:25.674Z,98566.00
2022-10-24T14:21:56.399Z,98568.97
2022-10-24T14:24:23.396Z,98569.63
2022-10-24T14:26:52.054Z,98563.63
2022-10-24T14:29:31.522Z,98566.97
2022-10-24T14:32:01.152Z,98563.59
2022-10-24T14:34:32.588Z,98569.25
2022-10-24T14:37:05.302Z,98564.72
2022-10-24T14:39:33.018Z,98565.31
2022-10-24T14:42:00.031Z,98560.97
2022-10-24T14:44:26.705Z,98559.81
2022-10-24T14:47:21.860Z,98556.88
2022-10-24T14:49:48.576Z,98553.81
2022-10-24T14:52:14.925Z,98553.81
2022-10-24T14:55:01.916Z,98549.31
2022-10-24T14:57:30.975Z,98544.38
2022-10-24T14:59:59.723Z,98556.13
2022-10-24T15:02:32.372Z,98555.56
2022-10-24T15:05:26.511Z,98560.53
2022-10-24T15:08:20.448Z,98567.41
2022-10-24T15:10:45.639Z,98578.72
2022-10-24T15:13:18.725Z,98571.75
2022-10-24T15:16:01.523Z,98570.59
2022-10-24T15:18:40.779Z,98566.16
2022-10-24T15:21:15.836Z,98568.00
2022-10-24T15:23:50.023Z,98564.31
2022-10-24T15:26:24.447Z,98569.28
2022-10-24T15:29:04.048Z,98566.13
2022-10-24T15:31:32.636Z,98566.75
2022-10-24T15:33:59.214Z,98568.19
2022-10-24T15:36:31.417Z,98568.34
2022-10-24T15:39:11.119Z,98571.25
2022-10-24T15:41:38.652Z,98577.03
2022-10-24T15:44:23.216Z,98581.19
2022-10-24T15:46:50.048Z,98575.00
2022-10-24T15:49:16.819Z,98581.94
2022-10-24T15:51:48.996Z,98575.88
2022-10-24T15:54:19.436Z,98588.06
2022-10-24T15:56:46.352Z,98581.25
2022-10-24T15:59:12.777Z,98584.28
2022-10-24T16:01:44.901Z,98590.59
2022-10-24T16:04:11.477Z,98595.41
2022-10-24T16:06:37.897Z,98603.34
2022-10-24T16:09:06.591Z,98595.63
2022-10-24T16:11:32.985Z,98585.81
2022-10-24T16:13:59.423Z,98583.78
2022-10-24T16:16:26.056Z,98587.31
2022-10-24T16:18:52.486Z,98586.97
2022-10-24T16:21:21.218Z,98583.34
2022-10-24T16:23:48.692Z,98578.38
2022-10-24T16:26:15.912Z,98589.06
2022-10-24T16:28:42.282Z,98601.03
2022-10-24T16:31:09.452Z,98610.97
2022-10-24T16:33:35.948Z,98612.34
2022-10-24T16:36:02.436Z,98607.16
2022-10-24T16:38:28.944Z,98609.31
2022-10-24T16:40:55.480Z,98622.69
2022-10-24T16:43:21.893Z,98642.16
2022-10-24T16:45:58.016Z,98651.28
2022-10-24T16:48:24.650Z,98648.13
2022-10-24T16:50:51.082Z,98649.84
2022-10-24T16:53:17.513Z,98645.38
2022-10-24T16:55:52.191Z,98646.84
2022-10-24T16:58:19.712Z,98645.88
2022-10-24T17:00:47.061Z,98645.13
2022-10-24T17:03:15.498Z,98646.81
2022-10-24T17:05:42.188Z,98643.31
2022-10-24T17:08:08.606Z,98643.13
2022-10-24T17:10:35.000Z,98648.94
2022-10-24T17:13:02.604Z,98650.00
2022-10-24T17:15:29.034Z,98657.09
2022-10-24T17:17:55.429Z,98653.41
2022-10-24T17:20:21.886Z,98659.66
2022-10-24T17:22:48.567Z,98667.75
2022-10-24T17:25:24.503Z,98665.06
2022-10-24T17:27:52.248Z,98672.50
2022-10-24T17:30:25.097Z,98678.72
2022-10-24T17:32:51.861Z,98688.84
2022-10-24T17:35:20.706Z,98696.31
2022-10-24T17:37:57.772Z,98694.44
2022-10-24T17:40:34.997Z,98696.31
2022-10-24T17:43:01.655Z,98697.34
2022-10-24T17:45:28.366Z,98699.41
2022-10-24T17:47:54.764Z,98702.53
2022-10-24T17:50:21.218Z,98699.88
2022-10-24T17:52:47.946Z,98701.13
2022-10-24T17:58:10.732Z,98699.94
2022-10-24T18:00:37.939Z,98705.47
2022-10-24T18:03:04.824Z,98706.31
2022-10-24T18:05:33.707Z,98721.19
2022-10-24T18:08:02.696Z,98720.56
2022-10-24T18:10:29.477Z,98715.63
2022-10-24T18:12:56.076Z,98718.16
2022-10-24T18:15:22.611Z,98721.44
2022-10-24T18:17:49.306Z,98729.53
2022-10-24T18:20:16.139Z,98746.00
2022-10-24T18:22:43.498Z,98760.63
2022-10-24T18:25:12.312Z,98775.44
2022-10-24T18:27:39.177Z,98782.63
2022-10-24T18:30:06.634Z,98791.69
2022-10-24T18:32:33.612Z,98793.94
2022-10-24T18:35:00.520Z,98865.88
2022-10-24T18:37:26.966Z,98852.06
2022-10-24T18:39:53.696Z,98808.00
2022-10-24T18:42:32.836Z,98788.31
2022-10-24T18:44:59.673Z,98793.81
2022-10-24T18:47:26.633Z,98788.44
2022-10-24T18:49:53.424Z,98782.94
2022-10-24T18:52:36.062Z,98782.16
2022-10-24T18:55:18.712Z,98780.72
2022-10-24T18:57:46.108Z,98779.69
2022-10-24T19:00:18.881Z,98774.00
2022-10-24T19:02:50.487Z,98789.28
2022-10-24T19:05:24.612Z,98776.91
2022-10-24T19:07:52.182Z,98782.72
2022-10-24T19:10:25.199Z,98782.84
2022-10-24T19:12:52.461Z,98775.72
2022-10-24T19:15:19.309Z,98785.50
2022-10-24T19:17:47.688Z,98796.69
2022-10-24T19:20:24.121Z,98793.00
2022-10-24T19:22:51.069Z,98808.50
2022-10-24T19:25:18.417Z,98821.34
2022-10-24T19:27:45.009Z,98837.28
2022-10-24T19:30:12.410Z,98840.22
2022-10-24T19:32:38.973Z,98852.84
2022-10-24T19:35:05.824Z,98835.53
2022-10-24T19:37:33.582Z,98830.63
2022-10-24T19:39:59.954Z,98841.16
2022-10-24T19:42:26.445Z,98840.38
2022-10-24T19:44:52.931Z,98851.31
2022-10-24T19:47:19.950Z,98833.41
2022-10-24T19:49:46.561Z,98835.09
2022-10-24T19:52:13.020Z,98833.84
2022-10-24T19:54:39.426Z,98822.94
2022-10-24T19:57:05.957Z,98835.91
2022-10-24T19:59:32.660Z,98847.06
2022-10-24T20:02:03.602Z,98828.09
2022-10-24T20:04:31.135Z,98826.03
2022-10-24T20:06:57.634Z,98829.31
2022-10-24T20:09:24.098Z,98824.34
2022-10-24T20:11:50.642Z,98822.69
2022-10-24T20:14:17.065Z,98824.34
2022-10-24T20:16:43.694Z,98839.59
2022-10-24T20:19:10.264Z,98844.97
2022-10-24T20:21:36.834Z,98852.00
2022-10-24T20:24:03.439Z,98857.53
2022-10-24T20:26:29.927Z,98876.28
2022-10-24T20:28:57.991Z,98891.97
2022-10-24T20:31:34.152Z,98912.59
2022-10-24T20:34:06.992Z,98924.75
2022-10-24T20:36:35.509Z,98938.31
2022-10-24T20:39:02.062Z,98940.59
2022-10-24T20:41:29.296Z,98952.75
2022-10-24T20:43:56.024Z,98952.13
2022-10-24T20:46:22.853Z,98941.22
2022-10-24T20:48:49.297Z,98937.50
2022-10-24T20:51:18.715Z,98953.38
2022-10-24T20:53:45.430Z,98964.72
2022-10-24T20:56:17.566Z,98956.66
2022-10-24T20:58:45.791Z,98957.09
2022-10-24T21:01:15.307Z,98953.81
2022-10-24T21:03:42.653Z,98954.81
2022-10-24T21:06:22.975Z,98916.28
2022-10-24T21:08:51.835Z,98898.34
2022-10-24T21:11:21.060Z,98902.28
2022-10-24T21:13:47.533Z,98917.72
2022-10-24T21:16:13.973Z,98930.03
2022-10-24T21:18:43.257Z,98925.50
2022-10-24T21:21:11.822Z,98930.63
2022-10-24T21:23:39.606Z,98931.66
2022-10-24T21:26:10.605Z,98933.09
2022-10-24T21:28:37.281Z,98921.34
2022-10-24T21:31:10.134Z,98929.38
2022-10-24T21:33:37.641Z,98924.81
2022-10-24T21:36:30.490Z,98939.59
2022-10-24T21:38:57.915Z,98944.13
2022-10-24T21:41:25.823Z,98933.63
2022-10-24T21:43:53.431Z,98942.00
2022-10-24T21:46:22.938Z,98939.53
2022-10-24T21:48:50.618Z,98933.53
2022-10-24T21:51:21.814Z,98934.09
2022-10-24T21:53:56.936Z,98937.78
2022-10-24T21:56:26.198Z,98949.66
2022-10-24T21:58:56.918Z,98953.75
2022-10-24T22:01:26.075Z,98940.59
2022-10-24T22:03:56.939Z,99347.91
2022-10-24T22:06:24.982Z,99343.28
2022-10-24T22:08:51.691Z,99352.06
2022-10-24T22:11:21.014Z,99354.44
2022-10-24T22:13:48.329Z,99355.38
2022-10-24T22:16:16.393Z,99347.28
2022-10-24T22:18:43.060Z,99334.19
2022-10-24T22:21:22.770Z,99344.56
2022-10-24T22:23:49.263Z,99337.94
2022-10-24T22:26:15.882Z,99336.63
2022-10-24T22:28:42.414Z,99341.81
2022-10-24T22:31:12.911Z,99345.03
2022-10-24T22:33:41.534Z,99338.59
2022-10-24T22:36:23.383Z,99341.41
2022-10-24T22:38:55.925Z,99341.16
2022-10-24T22:41:23.018Z,99308.00
2022-10-24T22:43:50.214Z,99298.22
2022-10-24T22:47:13.951Z,99294.25
2022-10-24T22:49:53.098Z,99294.16
2022-10-24T22:52:20.082Z,99296.75
2022-10-24T22:54:46.880Z,99294.69
2022-10-24T22:57:14.714Z,99288.91
2022-10-24T22:59:42.795Z,99289.47
2022-10-24T23:02:12.510Z,99281.91
2022-10-24T23:04:48.547Z,99262.56
2022-10-24T23:07:27.568Z,99257.44
2022-10-24T23:09:54.661Z,99258.97
2022-10-24T23:12:22.495Z,99264.22
2022-10-24T23:14:49.983Z,99262.94
2022-10-24T23:17:25.479Z,99266.22
2022-10-24T23:19:52.678Z,99269.91
2022-10-24T23:22:30.659Z,99275.72
2022-10-24T23:24:59.813Z,99268.72
2022-10-24T23:27:36.251Z,99269.25
2022-10-24T23:30:07.182Z,99269.09
2022-10-24T23:32:37.858Z,99271.28
2022-10-24T23:35:04.884Z,99272.94
2022-10-24T23:37:44.096Z,99279.16
2022-10-24T23:40:29.540Z,99272.72
2022-10-24T23:42:56.300Z,99273.81
2022-10-24T23:45:28.963Z,99267.44
2022-10-24T23:48:26.434Z,99271.66
2022-10-24T23:51:16.467Z,99272.22
2022-10-24T23:53:50.458Z,99276.72
2022-10-24T23:56:20.513Z,99278.38
2022-10-24T23:58:47.272Z,99271.59
